Terminal Aerodrome Forecast
Issued by NWS Mt. Holly, NJ

Home | Current Version | Previous Version | Text Only | Print | Product List | Glossary On
Versions: 1 2 3 4 5 6 7 8 9 10 11 12 13 14 15
000
FTUS41 KPHI 271129
TAFRDG
TAF
KRDG 271129Z 2712/2812 00000KT P6SM FEW050
     FM271500 23009KT P6SM SCT050
      TEMPO 2718/2722 BKN050
     FM280000 20006KT P6SM SCT060
     FM280900 00000KT 2SM BR FEW002=

USA.gov is the U.S. government's official web portal to all federal, state and local government web resources and services.